Time;durP1;ratioP1;P1;durP2;ratioP2;P2;SDS_P1;SDS_P2;PMS_P1;PMS_P2;Temp;Humidity;BMP_temperature;BMP_pressure;BME280_temperature;BME280_humidity;BME280_pressure;Samples;Min_cycle;Max_cycle;Signal;HPM_P1;HPM_P2
2022/07/30 00:02:15;;;;;;;6.80;2.60;;;19.00;56.20;;;;;;5033280;28;20051;-69
2022/07/30 00:04:41;;;;;;;3.30;2.58;;;19.00;56.20;;;;;;5033322;28;20117;-69
2022/07/30 00:07:07;;;;;;;3.78;2.85;;;18.90;56.20;;;;;;5033540;28;20041;-69
2022/07/30 00:09:33;;;;;;;6.18;3.65;;;18.90;56.10;;;;;;5033495;28;20050;-68
2022/07/30 00:11:58;;;;;;;3.88;2.95;;;18.90;56.20;;;;;;5033145;28;20521;-69
2022/07/30 00:14:25;;;;;;;3.30;2.58;;;18.80;56.20;;;;;;5016929;28;20060;-68
2022/07/30 00:16:51;;;;;;;4.00;2.78;;;18.90;56.30;;;;;;5033398;28;20125;-68
2022/07/30 00:19:16;;;;;;;3.72;2.63;;;18.80;56.30;;;;;;5034314;28;20064;-68
2022/07/30 00:21:42;;;;;;;4.90;3.25;;;18.80;56.30;;;;;;5034196;28;20478;-68
2022/07/30 00:24:08;;;;;;;4.15;2.70;;;18.80;56.40;;;;;;5016429;28;20080;-68
2022/07/30 00:26:34;;;;;;;5.07;3.22;;;18.70;56.40;;;;;;5032621;28;20057;-68
2022/07/30 00:28:59;;;;;;;4.22;2.90;;;18.70;56.50;;;;;;5032838;28;20045;-68
2022/07/30 00:31:25;;;;;;;5.68;3.47;;;18.70;56.60;;;;;;5016373;28;20441;-68
2022/07/30 00:33:51;;;;;;;5.32;3.85;;;18.70;56.70;;;;;;5032844;28;20085;-68
2022/07/30 00:36:16;;;;;;;5.47;3.60;;;18.70;56.90;;;;;;5032690;28;20099;-68
2022/07/30 00:38:42;;;;;;;7.00;4.07;;;18.70;57.00;;;;;;5032428;28;20457;-69
2022/07/30 00:41:08;;;;;;;9.32;4.53;;;18.60;57.00;;;;;;5031884;28;20532;-69
2022/07/30 00:43:34;;;;;;;6.53;4.55;;;18.60;57.20;;;;;;5032542;28;20045;-68
2022/07/30 00:46:00;;;;;;;6.95;4.38;;;18.60;57.40;;;;;;5033963;28;20103;-68
2022/07/30 00:48:25;;;;;;;6.95;4.20;;;18.60;57.40;;;;;;5032527;28;20053;-68
2022/07/30 00:50:51;;;;;;;4.60;3.88;;;18.60;57.40;;;;;;5033619;28;20406;-68
2022/07/30 00:53:17;;;;;;;4.78;3.28;;;18.50;57.40;;;;;;5033541;28;20045;-68
2022/07/30 00:55:43;;;;;;;5.85;4.50;;;18.50;57.50;;;;;;5033476;28;20552;-68
2022/07/30 00:58:08;;;;;;;8.55;4.70;;;18.50;57.40;;;;;;5032377;28;20045;-68
2022/07/30 01:00:34;;;;;;;6.85;4.32;;;18.50;57.40;;;;;;5032224;28;20037;-64
2022/07/30 01:03:00;;;;;;;6.05;4.07;;;18.40;57.30;;;;;;5033556;28;20090;-63
2022/07/30 01:05:25;;;;;;;6.22;4.32;;;18.40;57.20;;;;;;5032136;28;20037;-63
2022/07/30 01:07:51;;;;;;;6.32;4.43;;;18.40;57.40;;;;;;5015682;28;20247;-63
2022/07/30 01:10:17;;;;;;;5.43;4.28;;;18.40;57.40;;;;;;5032119;28;20037;-64
2022/07/30 01:12:44;;;;;;;6.90;4.85;;;18.30;57.80;;;;;;5032253;28;20055;-65
2022/07/30 01:15:10;;;;;;;6.18;4.45;;;18.30;57.50;;;;;;5031962;28;20056;-63
2022/07/30 01:17:37;;;;;;;6.82;4.88;;;18.30;57.50;;;;;;5015783;28;20441;-63
2022/07/30 01:20:09;;;;;;;7.47;5.15;;;18.30;57.50;;;;;;5032114;28;20398;-63
2022/07/30 01:23:05;;;;;;;6.40;5.80;;;18.30;57.60;;;;;;5031793;28;20470;-62
2022/07/30 01:25:31;;;;;;;7.53;5.35;;;18.30;57.60;;;;;;5032825;28;20541;-62
2022/07/30 01:28:10;;;;;;;7.80;6.07;;;18.30;57.70;;;;;;5031714;28;20041;-62
2022/07/30 01:30:40;;;;;;;7.70;5.47;;;18.30;57.80;;;;;;5031702;28;20053;-62
2022/07/30 01:33:10;;;;;;;7.25;5.90;;;18.20;57.80;;;;;;5031610;28;20041;-62
2022/07/30 01:35:38;;;;;;;8.23;6.32;;;18.20;58.00;;;;;;5031636;28;20044;-62
2022/07/30 01:38:05;;;;;;;8.13;6.60;;;18.20;58.20;;;;;;5032911;28;20053;-62
2022/07/30 01:40:32;;;;;;;7.90;6.88;;;18.20;58.30;;;;;;5031503;28;20487;-63
2022/07/30 01:43:01;;;;;;;8.77;6.30;;;18.20;58.40;;;;;;5031586;28;20041;-63
2022/07/30 01:45:28;;;;;;;7.57;5.93;;;18.20;58.40;;;;;;5031441;28;20046;-63
2022/07/30 01:48:00;;;;;;;6.90;6.20;;;18.10;58.40;;;;;;5032740;28;20482;-62
2022/07/30 01:50:28;;;;;;;6.53;5.85;;;18.20;58.50;;;;;;5032393;28;20091;-62
2022/07/30 01:52:56;;;;;;;7.07;5.28;;;18.20;58.50;;;;;;5032760;28;20391;-63
2022/07/30 01:55:28;;;;;;;7.30;5.47;;;18.10;58.50;;;;;;5031536;28;20038;-63
2022/07/30 01:57:56;;;;;;;6.65;5.05;;;18.10;58.50;;;;;;5031409;28;20058;-63
2022/07/30 02:00:23;;;;;;;5.75;4.60;;;18.10;58.60;;;;;;5031187;28;20053;-63
2022/07/30 02:02:49;;;;;;;4.20;3.80;;;18.10;58.70;;;;;;5031351;28;20064;-63
2022/07/30 02:05:14;;;;;;;5.30;4.15;;;18.10;58.70;;;;;;5031612;28;20037;-63
2022/07/30 02:08:12;;;;;;;4.70;3.72;;;18.10;59.10;;;;;;5031343;28;20120;-63
2022/07/30 02:10:45;;;;;;;4.30;3.47;;;18.10;59.10;;;;;;5015508;28;20053;-63
2022/07/30 02:13:14;;;;;;;5.45;3.80;;;18.10;59.60;;;;;;5031551;28;20429;-63
2022/07/30 02:15:55;;;;;;;4.00;3.22;;;18.00;60.10;;;;;;5031337;28;20037;-63
2022/07/30 02:18:31;;;;;;;4.30;3.20;;;18.10;59.90;;;;;;5032400;28;20513;-62
2022/07/30 02:21:04;;;;;;;3.60;3.28;;;18.10;59.90;;;;;;5030894;28;20088;-63
2022/07/30 02:23:34;;;;;;;4.30;3.67;;;18.00;59.90;;;;;;5031106;28;20279;-62
2022/07/30 02:26:00;;;;;;;5.57;4.32;;;18.00;60.10;;;;;;5031081;28;20057;-63
2022/07/30 02:28:29;;;;;;;4.05;3.65;;;18.00;60.30;;;;;;5031193;28;20121;-62
2022/07/30 02:30:58;;;;;;;5.60;3.90;;;18.10;60.60;;;;;;5032747;28;20099;-63
2022/07/30 02:33:32;;;;;;;4.13;3.72;;;18.00;60.70;;;;;;5032298;28;20411;-63
2022/07/30 02:35:59;;;;;;;5.40;4.50;;;18.00;60.60;;;;;;5031142;28;20120;-63
2022/07/30 02:38:27;;;;;;;5.38;4.07;;;18.00;60.80;;;;;;5031117;28;20366;-63
2022/07/30 02:40:56;;;;;;;4.40;3.90;;;18.10;61.10;;;;;;5031169;28;20433;-63
2022/07/30 02:43:25;;;;;;;4.40;4.00;;;18.00;60.90;;;;;;5032304;28;20045;-63
2022/07/30 02:45:51;;;;;;;4.55;3.83;;;18.10;61.00;;;;;;5031003;28;20049;-63
2022/07/30 02:48:20;;;;;;;3.63;3.28;;;18.10;61.10;;;;;;5032426;28;20041;-62
2022/07/30 02:50:49;;;;;;;4.18;3.78;;;18.10;60.90;;;;;;5014360;28;20076;-62
2022/07/30 02:53:17;;;;;;;3.55;3.08;;;18.10;61.00;;;;;;5032081;28;20037;-63
2022/07/30 02:55:44;;;;;;;3.63;3.33;;;18.10;61.00;;;;;;5030923;28;20049;-63
2022/07/30 02:58:11;;;;;;;4.28;3.88;;;18.10;61.20;;;;;;5032199;28;20044;-63
2022/07/30 03:00:38;;;;;;;4.47;4.07;;;18.10;61.30;;;;;;5031066;28;20045;-64
2022/07/30 03:03:07;;;;;;;4.60;4.18;;;18.10;61.50;;;;;;5033588;28;20146;-64
2022/07/30 03:05:34;;;;;;;5.00;4.50;;;18.10;61.50;;;;;;5034387;28;20607;-63
2022/07/30 03:08:00;;;;;;;4.82;4.43;;;18.10;61.60;;;;;;5035598;28;20042;-64
2022/07/30 03:10:27;;;;;;;3.40;3.10;;;18.10;61.90;;;;;;5034646;28;20073;-64
2022/07/30 03:12:55;;;;;;;2.60;2.40;;;18.10;62.20;;;;;;5035510;28;20041;-63
2022/07/30 03:15:21;;;;;;;4.25;3.65;;;18.10;61.40;;;;;;5035378;28;20042;-63
2022/07/30 03:17:51;;;;;;;4.00;2.90;;;18.10;61.30;;;;;;5034140;28;20490;-63
2022/07/30 03:20:22;;;;;;;5.68;3.65;;;18.10;61.30;;;;;;5035380;28;20049;-63
2022/07/30 03:22:52;;;;;;;4.00;3.60;;;18.10;61.30;;;;;;5033839;28;20521;-63
2022/07/30 03:25:23;;;;;;;5.88;4.20;;;18.10;61.30;;;;;;5033924;28;20054;-63
2022/07/30 03:27:50;;;;;;;7.07;6.38;;;18.10;61.70;;;;;;5017486;28;20557;-63
2022/07/30 03:30:15;;;;;;;8.68;6.28;;;18.10;62.30;;;;;;5035197;28;20088;-63
2022/07/30 03:32:42;;;;;;;4.22;3.75;;;18.10;62.60;;;;;;5034138;28;20089;-63
2022/07/30 03:35:09;;;;;;;4.00;3.50;;;18.10;62.40;;;;;;5035039;28;20041;-63
2022/07/30 03:37:38;;;;;;;6.35;4.30;;;18.10;62.20;;;;;;5017660;28;20111;-62
2022/07/30 03:40:05;;;;;;;5.13;3.95;;;18.10;62.60;;;;;;5033753;28;20077;-63
2022/07/30 03:42:32;;;;;;;5.20;4.10;;;18.10;62.10;;;;;;5033790;28;20048;-63
2022/07/30 03:44:59;;;;;;;4.55;3.85;;;18.10;62.00;;;;;;5035055;28;20394;-63
2022/07/30 03:47:26;;;;;;;4.57;4.07;;;18.10;61.90;;;;;;5033627;28;20529;-64
2022/07/30 03:49:52;;;;;;;4.75;4.15;;;18.10;61.70;;;;;;5033517;28;20042;-64
2022/07/30 03:52:19;;;;;;;5.10;4.53;;;18.10;61.80;;;;;;5034951;28;20042;-64
2022/07/30 03:54:46;;;;;;;4.40;3.95;;;18.10;61.90;;;;;;5033405;28;20053;-64
2022/07/30 03:57:12;;;;;;;4.32;3.92;;;18.10;62.30;;;;;;5033556;28;20049;-63
2022/07/30 03:59:39;;;;;;;4.80;3.63;;;18.10;61.90;;;;;;5034846;28;20041;-64
2022/07/30 04:02:04;;;;;;;4.00;3.60;;;18.10;61.90;;;;;;5034696;28;20050;-67
2022/07/30 04:04:30;;;;;;;4.90;4.40;;;18.10;61.80;;;;;;5033597;28;20467;-63
2022/07/30 04:06:57;;;;;;;5.40;4.40;;;18.20;61.80;;;;;;5033320;28;20125;-63
2022/07/30 04:09:23;;;;;;;4.13;3.58;;;18.20;61.80;;;;;;5034342;28;20041;-64
2022/07/30 04:11:50;;;;;;;4.85;3.30;;;18.20;61.70;;;;;;5033151;28;20037;-64
2022/07/30 04:14:16;;;;;;;4.07;3.45;;;18.20;61.60;;;;;;5034293;28;20051;-64
2022/07/30 04:16:57;;;;;;;6.10;5.25;;;18.20;61.60;;;;;;5033277;28;20124;-63
2022/07/30 04:19:28;;;;;;;4.50;3.70;;;18.20;62.00;;;;;;5033000;28;20124;-64
2022/07/30 04:21:55;;;;;;;3.45;3.05;;;18.20;61.90;;;;;;5034039;28;20368;-64
2022/07/30 04:24:22;;;;;;;4.38;3.97;;;18.20;61.80;;;;;;5034115;28;20073;-64
2022/07/30 04:26:50;;;;;;;4.00;3.60;;;18.20;62.00;;;;;;5034012;28;20517;-64
2022/07/30 04:29:17;;;;;;;3.38;3.08;;;18.20;62.00;;;;;;5033029;28;20048;-64
2022/07/30 04:31:42;;;;;;;4.00;3.60;;;18.20;61.90;;;;;;5034146;28;20435;-63
2022/07/30 04:34:13;;;;;;;3.53;3.20;;;18.20;62.50;;;;;;5049364;28;20080;-64
2022/07/30 04:36:41;;;;;;;4.22;2.92;;;18.20;62.10;;;;;;5033992;28;20044;-63
2022/07/30 04:39:06;;;;;;;4.82;3.53;;;18.20;62.10;;;;;;5034101;28;20095;-62
2022/07/30 04:41:32;;;;;;;4.38;3.60;;;18.20;62.20;;;;;;5032762;28;20049;-63
2022/07/30 04:43:58;;;;;;;4.10;3.70;;;18.20;62.20;;;;;;5032565;28;20437;-63
2022/07/30 04:46:23;;;;;;;3.45;2.95;;;18.20;62.60;;;;;;5032777;28;20045;-62
2022/07/30 04:48:49;;;;;;;3.90;3.50;;;18.20;62.70;;;;;;5033671;28;20402;-63
2022/07/30 04:51:42;;;;;;;4.70;3.83;;;18.20;62.80;;;;;;5032676;28;20049;-62
2022/07/30 04:54:10;;;;;;;5.20;3.75;;;18.20;63.00;;;;;;5030877;28;20499;-62
2022/07/30 04:56:37;;;;;;;4.95;3.95;;;18.20;63.20;;;;;;5032177;28;20508;-63
2022/07/30 04:59:03;;;;;;;4.32;3.92;;;18.20;63.40;;;;;;5032503;28;20052;-62
2022/07/30 05:01:36;;;;;;;8.30;4.38;;;18.30;63.60;;;;;;5032301;28;20045;-62
2022/07/30 05:04:04;;;;;;;3.83;3.30;;;18.30;63.80;;;;;;5033594;28;20041;-63
2022/07/30 05:06:32;;;;;;;5.97;3.95;;;18.30;63.80;;;;;;5032023;28;20113;-63
2022/07/30 05:08:58;;;;;;;5.10;4.60;;;18.30;63.90;;;;;;5032170;28;20406;-63
2022/07/30 05:11:23;;;;;;;5.25;4.00;;;18.30;64.20;;;;;;5032011;28;20037;-63
2022/07/30 05:13:49;;;;;;;6.57;5.38;;;18.30;64.10;;;;;;5032242;28;20136;-63
2022/07/30 05:16:15;;;;;;;7.88;5.95;;;18.30;64.30;;;;;;5032328;28;20041;-63
2022/07/30 05:18:42;;;;;;;4.60;3.70;;;18.30;64.80;;;;;;5031980;28;20056;-63
2022/07/30 05:21:08;;;;;;;5.88;4.30;;;18.40;64.70;;;;;;5033046;28;20375;-63
2022/07/30 05:23:34;;;;;;;6.15;4.70;;;18.30;64.60;;;;;;5032067;28;20041;-63
2022/07/30 05:26:00;;;;;;;6.55;4.70;;;18.40;64.70;;;;;;5030972;28;20048;-63
2022/07/30 05:28:26;;;;;;;5.50;4.28;;;18.40;64.60;;;;;;5015143;28;20487;-63
2022/07/30 05:30:55;;;;;;;4.47;4.07;;;18.40;64.60;;;;;;5031820;28;20049;-63
2022/07/30 05:33:22;;;;;;;5.10;4.60;;;18.50;64.50;;;;;;5031738;28;20049;-63
2022/07/30 05:35:48;;;;;;;6.78;4.68;;;18.40;64.90;;;;;;5015520;28;20081;-63
2022/07/30 05:38:15;;;;;;;6.43;5.68;;;18.50;65.00;;;;;;5031629;28;20046;-63
2022/07/30 05:40:41;;;;;;;5.68;5.00;;;18.50;65.80;;;;;;5031442;28;20136;-64
2022/07/30 05:43:07;;;;;;;8.65;5.05;;;18.50;65.50;;;;;;5031594;28;20053;-63
2022/07/30 05:45:33;;;;;;;5.85;4.80;;;18.60;66.00;;;;;;5033149;28;20406;-63
2022/07/30 05:47:58;;;;;;;6.65;5.75;;;18.60;65.80;;;;;;5015268;28;20120;-63
2022/07/30 05:50:24;;;;;;;10.05;5.93;;;18.60;66.00;;;;;;5032948;28;20102;-63
2022/07/30 05:52:50;;;;;;;6.70;5.25;;;18.70;66.30;;;;;;5032613;28;20096;-68
2022/07/30 05:55:15;;;;;;;6.82;5.97;;;18.70;66.30;;;;;;5031449;28;20188;-68
2022/07/30 05:57:41;;;;;;;7.55;5.35;;;18.80;66.50;;;;;;5032333;28;20044;-68
2022/07/30 06:00:11;;;;;;;8.23;5.40;;;18.80;66.80;;;;;;5031563;28;20056;-68
2022/07/30 06:02:39;;;;;;;5.07;4.55;;;18.80;66.90;;;;;;5031119;28;20126;-68
2022/07/30 06:05:05;;;;;;;7.25;5.47;;;18.90;66.80;;;;;;5015339;28;20037;-68
2022/07/30 06:07:31;;;;;;;8.23;6.85;;;18.90;67.00;;;;;;5031259;28;20034;-67
2022/07/30 06:09:59;;;;;;;10.10;7.18;;;19.00;67.60;;;;;;5031124;28;20067;-67
2022/07/30 06:12:26;;;;;;;9.40;5.55;;;19.10;68.10;;;;;;5031125;28;20509;-67
2022/07/30 06:14:52;;;;;;;10.05;6.30;;;19.20;68.90;;;;;;5031138;28;20046;-68
2022/07/30 06:17:17;;;;;;;6.97;5.13;;;19.30;69.20;;;;;;5032430;28;20048;-68
2022/07/30 06:19:43;;;;;;;8.68;4.03;;;19.60;69.00;;;;;;5031077;28;20038;-68
2022/07/30 06:22:09;;;;;;;7.97;4.60;;;19.90;68.20;;;;;;5030889;28;20046;-68
2022/07/30 06:24:36;;;;;;;6.18;3.60;;;20.20;67.60;;;;;;5032090;28;20045;-67
2022/07/30 06:27:01;;;;;;;8.48;4.38;;;20.60;66.80;;;;;;5032188;28;20459;-68
2022/07/30 06:29:27;;;;;;;8.85;4.20;;;20.80;66.30;;;;;;5031272;28;20045;-68
2022/07/30 06:31:53;;;;;;;6.88;4.38;;;21.10;65.80;;;;;;5031025;28;20053;-67
2022/07/30 06:34:19;;;;;;;7.50;4.63;;;21.50;65.50;;;;;;5032318;28;20046;-68
2022/07/30 06:36:44;;;;;;;6.88;3.63;;;21.80;64.00;;;;;;5033190;28;20041;-68
2022/07/30 06:39:10;;;;;;;9.20;4.13;;;22.10;62.90;;;;;;5035037;28;20037;-67
2022/07/30 06:41:36;;;;;;;7.47;3.80;;;22.40;62.10;;;;;;5036096;28;20123;-67
2022/07/30 06:44:01;;;;;;;7.07;3.83;;;22.70;61.60;;;;;;5035129;28;20057;-67
2022/07/30 06:46:27;;;;;;;5.68;3.63;;;22.90;61.20;;;;;;5034830;28;20030;-69
2022/07/30 06:48:52;;;;;;;6.70;3.78;;;23.10;60.10;;;;;;5034619;28;20045;-64
2022/07/30 06:51:18;;;;;;;7.13;4.00;;;23.40;59.50;;;;;;5035648;28;20037;-64
2022/07/30 06:53:44;;;;;;;9.23;4.55;;;23.60;58.80;;;;;;5050965;28;20049;-62
2022/07/30 06:56:11;;;;;;;6.32;3.92;;;23.60;58.00;;;;;;5034522;28;20100;-63
2022/07/30 06:58:37;;;;;;;6.38;3.80;;;23.70;57.50;;;;;;5034598;28;20056;-63
2022/07/30 07:01:02;;;;;;;12.55;4.32;;;23.80;57.20;;;;;;5034925;28;20124;-68
2022/07/30 07:03:28;;;;;;;9.13;4.50;;;23.80;57.20;;;;;;5035922;28;20129;-67
2022/07/30 07:05:54;;;;;;;7.60;3.72;;;23.90;57.20;;;;;;5034831;28;20390;-67
2022/07/30 07:08:19;;;;;;;6.40;3.50;;;24.00;56.70;;;;;;5035847;28;20048;-67
2022/07/30 07:10:45;;;;;;;11.02;4.68;;;24.00;56.10;;;;;;5034741;28;20042;-68
2022/07/30 07:13:11;;;;;;;6.05;3.28;;;24.00;56.40;;;;;;5035652;28;20498;-68
2022/07/30 07:15:36;;;;;;;8.10;4.43;;;24.00;56.10;;;;;;5035532;28;20034;-68
2022/07/30 07:18:03;;;;;;;7.90;3.50;;;24.10;56.40;;;;;;5035376;28;20052;-68
2022/07/30 07:20:28;;;;;;;6.32;3.80;;;24.30;56.40;;;;;;5034090;28;20094;-68
2022/07/30 07:22:54;;;;;;;6.55;3.65;;;24.40;55.70;;;;;;5033944;28;20037;-68
2022/07/30 07:25:20;;;;;;;5.30;3.05;;;24.50;55.20;;;;;;5033942;28;20180;-69
2022/07/30 07:27:45;;;;;;;6.43;3.45;;;24.50;54.60;;;;;;5034024;28;20126;-68
2022/07/30 07:30:11;;;;;;;6.22;2.92;;;24.50;54.50;;;;;;5034021;28;20048;-68
2022/07/30 07:32:37;;;;;;;7.13;3.33;;;24.40;54.30;;;;;;5033687;28;20045;-68
2022/07/30 07:35:04;;;;;;;8.13;3.47;;;24.40;54.00;;;;;;5033860;28;20152;-67
2022/07/30 07:37:29;;;;;;;8.15;3.00;;;24.30;54.30;;;;;;5017138;28;20501;-69
2022/07/30 07:39:55;;;;;;;6.97;3.00;;;24.30;54.20;;;;;;5034138;28;20121;-68
2022/07/30 07:42:21;;;;;;;5.53;2.75;;;24.20;54.10;;;;;;5034970;28;20132;-68
2022/07/30 07:44:46;;;;;;;8.57;2.60;;;24.20;54.30;;;;;;5035059;28;20368;-68
2022/07/30 07:47:12;;;;;;;9.88;2.83;;;24.10;54.40;;;;;;5034240;28;20045;-68
2022/07/30 07:49:38;;;;;;;6.82;3.30;;;24.00;54.50;;;;;;5033143;28;20041;-69
2022/07/30 07:52:04;;;;;;;6.20;2.70;;;24.00;54.70;;;;;;5033729;28;20042;-68
2022/07/30 07:54:29;;;;;;;7.60;2.90;;;24.10;54.70;;;;;;5033166;28;20499;-69
2022/07/30 07:56:55;;;;;;;4.80;2.38;;;24.10;54.20;;;;;;5033675;28;20046;-69
2022/07/30 07:59:21;;;;;;;6.20;2.60;;;24.00;53.80;;;;;;5033538;28;20049;-63
2022/07/30 08:01:47;;;;;;;6.55;2.40;;;24.00;53.60;;;;;;5033304;28;20075;-68
2022/07/30 08:04:13;;;;;;;5.28;2.35;;;23.90;53.70;;;;;;5034675;28;20049;-68
2022/07/30 08:06:38;;;;;;;4.07;2.47;;;23.90;53.80;;;;;;5033615;28;20041;-68
2022/07/30 08:09:04;;;;;;;6.10;2.05;;;24.00;53.90;;;;;;5033517;28;20091;-68
2022/07/30 08:11:30;;;;;;;4.28;1.95;;;24.00;53.80;;;;;;5034641;28;20525;-68
2022/07/30 08:13:56;;;;;;;4.68;2.38;;;24.20;53.60;;;;;;5034606;28;20037;-67
2022/07/30 08:16:22;;;;;;;6.70;2.15;;;24.40;53.50;;;;;;5034298;28;20482;-69
2022/07/30 08:18:48;;;;;;;8.15;2.83;;;24.50;53.00;;;;;;5033547;28;20073;-68
2022/07/30 08:21:14;;;;;;;8.20;3.20;;;24.60;52.40;;;;;;5034166;28;20079;-69
2022/07/30 08:23:40;;;;;;;4.85;2.20;;;24.70;52.40;;;;;;5033074;28;20045;-69
2022/07/30 08:26:06;;;;;;;7.28;2.90;;;24.70;52.20;;;;;;5034170;28;20127;-69
2022/07/30 08:28:32;;;;;;;6.63;2.60;;;24.70;52.30;;;;;;5033023;28;20491;-68
2022/07/30 08:30:57;;;;;;;6.57;2.72;;;24.80;52.60;;;;;;5032788;28;20070;-70
2022/07/30 08:33:23;;;;;;;8.23;2.65;;;24.80;52.30;;;;;;5034129;28;20084;-69
2022/07/30 08:35:49;;;;;;;7.53;2.45;;;24.90;52.30;;;;;;5032929;28;20037;-68
2022/07/30 08:38:15;;;;;;;5.45;2.15;;;25.10;51.80;;;;;;5032926;28;20039;-69
2022/07/30 08:40:40;;;;;;;5.65;2.28;;;25.20;51.30;;;;;;5032579;28;20051;-68
2022/07/30 08:43:07;;;;;;;4.95;1.90;;;25.40;51.20;;;;;;5033966;28;20042;-69
2022/07/30 08:45:34;;;;;;;7.43;2.20;;;25.50;50.80;;;;;;5034130;28;20084;-68
2022/07/30 08:48:00;;;;;;;6.47;2.28;;;25.60;50.70;;;;;;5032662;28;20486;-68
2022/07/30 08:50:28;;;;;;;8.43;2.70;;;25.80;50.40;;;;;;5032688;28;20486;-68
2022/07/30 08:52:54;;;;;;;5.40;2.35;;;26.00;49.90;;;;;;5032774;28;20049;-68
2022/07/30 08:55:22;;;;;;;6.38;2.40;;;26.10;49.40;;;;;;5032554;28;20075;-68
2022/07/30 08:57:48;;;;;;;7.03;2.92;;;26.20;49.00;;;;;;5032592;28;20046;-68
2022/07/30 09:00:15;;;;;;;5.47;2.33;;;26.30;48.90;;;;;;5031773;28;20500;-68
2022/07/30 09:02:41;;;;;;;5.35;2.17;;;26.40;48.50;;;;;;5033631;28;20045;-68
2022/07/30 09:05:09;;;;;;;8.10;2.05;;;26.50;48.00;;;;;;5032306;28;20071;-68
2022/07/30 09:07:35;;;;;;;5.10;2.05;;;26.70;47.80;;;;;;5032234;28;20631;-68
2022/07/30 09:10:01;;;;;;;5.60;1.77;;;26.80;47.40;;;;;;5033417;28;20056;-68
2022/07/30 09:12:40;;;;;;;5.78;2.00;;;27.00;47.20;;;;;;5033464;28;20035;-68
2022/07/30 09:15:16;;;;;;;4.00;1.90;;;27.10;46.80;;;;;;5033405;28;20037;-68
2022/07/30 09:17:47;;;;;;;7.00;2.03;;;27.30;46.10;;;;;;5032124;28;20491;-68
2022/07/30 09:20:13;;;;;;;5.05;1.75;;;27.30;45.80;;;;;;5032030;28;20052;-68
2022/07/30 09:22:49;;;;;;;6.97;2.05;;;27.40;45.50;;;;;;5033117;28;20128;-68
2022/07/30 09:25:15;;;;;;;5.20;2.03;;;27.50;45.50;;;;;;5032994;28;20490;-68
2022/07/30 09:27:46;;;;;;;4.38;2.08;;;27.50;45.40;;;;;;5033049;28;20099;-68
2022/07/30 09:30:12;;;;;;;9.07;2.30;;;27.60;45.80;;;;;;5033120;28;20103;-68
2022/07/30 09:32:53;;;;;;;5.20;1.73;;;27.80;46.10;;;;;;5031873;28;20044;-68
2022/07/30 09:35:21;;;;;;;5.30;1.85;;;27.80;45.80;;;;;;5032106;28;20454;-68
2022/07/30 09:37:56;;;;;;;5.15;2.47;;;27.90;45.30;;;;;;5033293;28;20037;-68
2022/07/30 09:40:22;;;;;;;3.50;1.40;;;28.10;44.20;;;;;;5031743;28;20037;-68
2022/07/30 09:42:59;;;;;;;4.85;2.05;;;28.20;43.60;;;;;;5031591;28;20072;-68
2022/07/30 09:45:25;;;;;;;3.95;1.77;;;28.20;43.20;;;;;;5032511;28;20525;-63
2022/07/30 09:47:51;;;;;;;4.53;1.85;;;28.30;42.70;;;;;;5031545;28;20049;-63
2022/07/30 09:50:23;;;;;;;3.78;1.52;;;28.30;42.70;;;;;;5031389;28;20033;-64
2022/07/30 09:52:49;;;;;;;4.32;1.80;;;28.30;42.50;;;;;;5015235;28;20045;-64
2022/07/30 09:55:29;;;;;;;5.20;1.73;;;28.30;42.70;;;;;;5031070;28;20056;-64
2022/07/30 09:57:56;;;;;;;6.40;2.25;;;28.30;42.80;;;;;;5032078;28;20045;-65
2022/07/30 10:00:24;;;;;;;3.85;1.75;;;28.20;42.80;;;;;;5031043;28;20069;-64
2022/07/30 10:02:52;;;;;;;2.85;1.65;;;28.20;42.90;;;;;;5013247;28;20387;-64
2022/07/30 10:05:19;;;;;;;4.75;2.08;;;28.20;42.90;;;;;;5030368;28;20399;-64
2022/07/30 10:07:55;;;;;;;3.70;1.88;;;28.20;43.00;;;;;;5030784;28;20042;-64
2022/07/30 10:10:24;;;;;;;5.78;1.60;;;28.20;43.30;;;;;;5032245;28;20074;-64
2022/07/30 10:12:53;;;;;;;3.65;1.67;;;28.30;43.40;;;;;;5033986;28;20098;-64
2022/07/30 10:15:22;;;;;;;4.28;1.55;;;28.30;43.50;;;;;;5036651;28;20042;-64
2022/07/30 10:17:49;;;;;;;3.28;1.77;;;28.40;43.60;;;;;;5035638;28;20045;-64
2022/07/30 10:20:16;;;;;;;5.38;2.05;;;28.50;43.00;;;;;;5036418;28;20049;-64
2022/07/30 10:22:43;;;;;;;5.18;1.60;;;28.60;42.60;;;;;;5035247;28;20053;-63
2022/07/30 10:25:09;;;;;;;4.07;1.50;;;28.60;42.40;;;;;;5036461;28;20339;-63
2022/07/30 10:27:36;;;;;;;4.25;1.58;;;28.70;42.10;;;;;;5036534;28;20052;-63
2022/07/30 10:30:02;;;;;;;6.72;1.80;;;28.80;41.60;;;;;;5035125;28;20398;-63
2022/07/30 10:32:27;;;;;;;3.28;1.58;;;28.80;41.40;;;;;;5035257;28;20085;-63
2022/07/30 10:34:54;;;;;;;4.40;1.60;;;28.80;41.70;;;;;;5051727;28;20686;-67
2022/07/30 10:37:21;;;;;;;3.08;1.42;;;28.80;41.90;;;;;;5036429;28;20544;-68
2022/07/30 10:40:09;;;;;;;6.50;2.03;;;28.80;41.80;;;;;;5035312;28;20099;-68
2022/07/30 10:42:44;;;;;;;3.00;1.45;;;28.90;41.80;;;;;;5034950;28;20088;-69
2022/07/30 10:45:21;;;;;;;2.53;1.45;;;29.00;41.70;;;;;;5035205;28;20042;-68
2022/07/30 10:47:48;;;;;;;4.88;1.80;;;29.10;42.10;;;;;;5035111;28;20041;-67
2022/07/30 10:50:21;;;;;;;4.43;2.00;;;29.20;42.10;;;;;;5034748;28;20041;-67
2022/07/30 10:52:59;;;;;;;3.75;1.60;;;29.20;41.70;;;;;;5034664;28;20049;-63
2022/07/30 10:55:30;;;;;;;3.55;1.65;;;29.30;41.80;;;;;;5034658;28;20053;-63
2022/07/30 10:58:11;;;;;;;2.97;1.42;;;29.40;41.40;;;;;;5034525;28;20478;-63
2022/07/30 11:00:52;;;;;;;3.88;1.95;;;29.50;40.80;;;;;;5034583;28;20045;-63
2022/07/30 11:03:22;;;;;;;3.08;1.58;;;29.60;41.40;;;;;;5034646;28;20091;-63
2022/07/30 11:05:50;;;;;;;1.98;1.20;;;29.60;41.10;;;;;;5034464;28;20116;-63
2022/07/30 11:08:36;;;;;;;4.63;1.73;;;29.60;40.80;;;;;;5035598;28;20069;-63
2022/07/30 11:11:03;;;;;;;3.47;1.50;;;29.70;40.40;;;;;;5035571;28;20037;-63
2022/07/30 11:13:51;;;;;;;5.18;1.80;;;29.60;39.90;;;;;;5034553;28;20116;-63
2022/07/30 11:16:19;;;;;;;3.60;1.80;;;29.60;40.40;;;;;;5034492;28;20472;-67
2022/07/30 11:19:15;;;;;;;6.57;1.90;;;29.60;40.30;;;;;;5034277;28;20049;-68
2022/07/30 11:21:42;;;;;;;4.13;2.35;;;29.60;40.40;;;;;;5035493;28;20042;-67
2022/07/30 11:24:43;;;;;;;7.40;2.08;;;29.50;40.50;;;;;;5033204;28;20045;-68
2022/07/30 11:27:29;;;;;;;4.55;2.25;;;29.60;40.60;;;;;;5034128;28;20085;-67
2022/07/30 11:29:55;;;;;;;4.13;1.60;;;29.60;39.90;;;;;;5033963;28;20196;-67
2022/07/30 11:32:26;;;;;;;4.78;1.50;;;29.60;40.10;;;;;;5034193;28;20041;-68
2022/07/30 11:35:20;;;;;;;5.28;1.70;;;29.60;40.20;;;;;;5034242;28;20390;-67
2022/07/30 11:37:55;;;;;;;;;;;29.50;40.00;;;;;;5034738;28;20099;-63
2022/07/30 11:40:23;;;;;;;5.57;1.73;;;29.50;40.60;;;;;;5035034;28;19940;-62
2022/07/30 11:42:50;;;;;;;3.28;1.60;;;29.40;40.30;;;;;;5033761;28;20049;-66
2022/07/30 11:45:15;;;;;;;5.28;1.75;;;29.40;40.20;;;;;;5033963;28;20044;-67
2022/07/30 11:47:50;;;;;;;4.28;1.60;;;29.40;40.70;;;;;;5033865;28;20124;-67
2022/07/30 11:50:27;;;;;;;3.30;1.60;;;29.30;40.30;;;;;;5034019;28;20372;-68
2022/07/30 11:52:56;;;;;;;4.53;1.33;;;29.30;40.30;;;;;;5017201;28;20049;-63
2022/07/30 11:55:29;;;;;;;3.63;1.83;;;29.20;39.40;;;;;;5034889;28;20112;-63
2022/07/30 11:57:57;;;;;;;3.58;1.52;;;29.20;39.60;;;;;;5033529;28;20072;-63
2022/07/30 12:00:23;;;;;;;3.30;1.27;;;29.10;39.30;;;;;;5017117;28;20099;-67
2022/07/30 12:02:50;;;;;;;5.57;1.55;;;29.10;39.50;;;;;;5033563;28;20453;-67
2022/07/30 12:05:24;;;;;;;4.22;1.50;;;29.10;39.80;;;;;;5034702;28;20049;-68
2022/07/30 12:07:50;;;;;;;4.32;1.30;;;29.10;40.10;;;;;;5034552;28;20076;-63
2022/07/30 12:10:17;;;;;;;4.07;1.20;;;29.10;40.20;;;;;;5016811;28;20069;-67
2022/07/30 12:12:44;;;;;;;3.13;1.50;;;29.10;40.50;;;;;;5033621;28;20506;-67
2022/07/30 12:15:26;;;;;;;3.00;1.60;;;29.20;40.10;;;;;;5033292;28;20064;-67
2022/07/30 12:17:52;;;;;;;2.80;1.17;;;29.30;40.30;;;;;;5034668;28;20453;-67
2022/07/30 12:20:18;;;;;;;2.95;1.20;;;29.30;39.80;;;;;;5033102;28;20041;-67
2022/07/30 12:22:44;;;;;;;2.03;1.20;;;29.40;39.50;;;;;;5016658;28;20057;-67
2022/07/30 12:25:10;;;;;;;4.25;1.58;;;29.50;39.30;;;;;;5032917;28;20506;-67
2022/07/30 12:27:37;;;;;;;3.58;1.35;;;29.50;38.80;;;;;;5033391;28;20106;-67
2022/07/30 12:30:08;;;;;;;4.35;1.55;;;29.50;39.60;;;;;;5032980;28;20589;-68
2022/07/30 12:32:34;;;;;;;3.08;1.15;;;29.50;39.40;;;;;;5033223;28;20098;-67
2022/07/30 12:35:00;;;;;;;1.83;1.10;;;29.50;39.00;;;;;;5032673;28;20045;-67
2022/07/30 12:37:27;;;;;;;5.50;1.33;;;29.50;38.50;;;;;;5032924;28;20052;-67
2022/07/30 12:40:09;;;;;;;4.72;1.40;;;29.50;38.50;;;;;;5033010;28;20375;-67
2022/07/30 12:42:35;;;;;;;4.00;1.27;;;29.50;39.00;;;;;;5032727;28;20486;-67
2022/07/30 12:45:01;;;;;;;3.97;1.92;;;29.40;38.90;;;;;;5032882;28;20045;-67
2022/07/30 12:47:29;;;;;;;2.17;1.00;;;29.40;39.00;;;;;;5032906;28;20414;-68
2022/07/30 12:49:57;;;;;;;2.72;1.17;;;29.30;39.10;;;;;;5033797;28;20103;-67
2022/07/30 12:52:26;;;;;;;3.10;1.02;;;29.30;38.80;;;;;;5032465;28;20103;-67
2022/07/30 12:55:11;;;;;;;4.05;1.40;;;29.30;39.20;;;;;;5032467;28;20049;-68